createdAt,value
2019-05-15T00:00:12.669Z,66.50
2019-05-15T00:00:49.937Z,66.30
2019-05-15T00:01:25.521Z,66.10
2019-05-15T00:02:00.917Z,66.00
2019-05-15T00:02:38.555Z,65.80
2019-05-15T00:03:13.598Z,65.90
2019-05-15T00:03:49.449Z,65.80
2019-05-15T00:04:25.470Z,65.80
2019-05-15T00:05:00.775Z,65.70
2019-05-15T00:05:39.006Z,65.70
2019-05-15T00:06:13.819Z,65.80
2019-05-15T00:06:49.410Z,66.50
2019-05-15T00:07:24.471Z,65.70
2019-05-15T00:08:01.075Z,65.70
2019-05-15T00:08:38.642Z,65.60
2019-05-15T00:09:13.808Z,65.60
2019-05-15T00:09:49.323Z,65.70
2019-05-15T00:10:26.064Z,65.70
2019-05-15T00:11:02.567Z,65.70
2019-05-15T00:11:38.941Z,65.70
2019-05-15T00:12:14.390Z,65.70
2019-05-15T00:12:49.830Z,65.80
2019-05-15T00:13:25.407Z,67.00
2019-05-15T00:14:01.015Z,66.30
2019-05-15T00:14:36.111Z,66.30
2019-05-15T00:15:11.699Z,66.40
2019-05-15T00:15:48.109Z,66.70
2019-05-15T00:16:23.718Z,66.50
2019-05-15T00:16:58.945Z,66.60
2019-05-15T00:17:34.571Z,66.60
2019-05-15T00:18:10.039Z,66.80
2019-05-15T00:18:48.250Z,66.80
2019-05-15T00:19:23.667Z,66.90
2019-05-15T00:19:59.079Z,67.10
2019-05-15T00:20:34.695Z,67.20
2019-05-15T00:21:10.395Z,67.30
2019-05-15T00:21:45.719Z,67.50
2019-05-15T00:22:21.386Z,67.60
2019-05-15T00:22:58.795Z,67.70
2019-05-15T00:23:34.034Z,68.00
2019-05-15T00:24:13.154Z,68.20
2019-05-15T00:24:48.676Z,68.30
2019-05-15T00:25:23.726Z,68.50
2019-05-15T00:25:59.306Z,68.70
2019-05-15T00:26:34.522Z,68.90
2019-05-15T00:27:09.962Z,69.10
2019-05-15T00:27:48.940Z,69.20
2019-05-15T00:28:24.175Z,69.40
2019-05-15T00:29:11.604Z,69.50
2019-05-15T00:29:38.324Z,69.70
2019-05-15T00:30:14.141Z,70.00
2019-05-15T00:30:49.854Z,70.00
2019-05-15T00:31:25.448Z,70.30
2019-05-15T00:32:01.033Z,70.50
2019-05-15T00:32:38.985Z,70.70
2019-05-15T00:33:13.724Z,70.80
2019-05-15T00:33:48.943Z,70.90
2019-05-15T00:34:24.371Z,71.20
2019-05-15T00:34:59.955Z,71.80
2019-05-15T00:35:35.557Z,71.50
2019-05-15T00:36:10.586Z,71.60
2019-05-15T00:36:46.191Z,72.00
2019-05-15T00:37:21.869Z,73.20
2019-05-15T00:38:05.627Z,73.40
2019-05-15T00:38:40.902Z,73.70
2019-05-15T00:39:18.807Z,73.90
2019-05-15T00:39:53.591Z,74.00
2019-05-15T00:40:29.204Z,74.20
2019-05-15T00:41:04.449Z,74.30
2019-05-15T00:41:50.509Z,74.60
2019-05-15T00:42:19.001Z,74.60
2019-05-15T00:42:54.766Z,74.80
2019-05-15T00:43:29.802Z,75.00
2019-05-15T00:44:05.435Z,75.30
2019-05-15T00:44:41.030Z,75.50
2019-05-15T00:45:18.416Z,75.60
2019-05-15T00:45:53.629Z,76.50
2019-05-15T00:46:29.527Z,76.00
2019-05-15T00:47:04.922Z,76.10
2019-05-15T00:47:40.518Z,76.30
2019-05-15T00:48:18.244Z,76.40
2019-05-15T00:48:53.083Z,76.50
2019-05-15T00:49:29.078Z,76.80
2019-05-15T00:50:05.375Z,77.10
2019-05-15T00:50:40.387Z,77.30
2019-05-15T00:51:15.976Z,77.40
2019-05-15T00:51:51.608Z,77.40
2019-05-15T00:52:28.285Z,77.50
2019-05-15T00:53:03.700Z,77.70
2019-05-15T00:53:39.303Z,77.90
2019-05-15T00:54:14.947Z,78.10
2019-05-15T00:54:50.519Z,78.30
2019-05-15T00:55:25.884Z,78.50
2019-05-15T00:56:01.291Z,78.70
2019-05-15T00:56:38.945Z,78.90
2019-05-15T00:57:14.174Z,79.10
2019-05-15T00:57:49.242Z,79.30
2019-05-15T00:58:24.878Z,79.40
2019-05-15T00:59:00.534Z,79.50
2019-05-15T00:59:35.914Z,79.70
2019-05-15T01:00:11.505Z,79.90
2019-05-15T01:00:48.683Z,80.70
2019-05-15T01:01:24.538Z,80.20
2019-05-15T01:02:00.134Z,80.20
2019-05-15T01:02:35.360Z,80.30
2019-05-15T01:03:10.813Z,80.60
2019-05-15T01:03:46.431Z,80.70
2019-05-15T01:04:22.055Z,80.70
2019-05-15T01:04:58.574Z,80.80
2019-05-15T01:05:34.593Z,81.10
2019-05-15T01:06:10.180Z,81.20
2019-05-15T01:06:45.574Z,81.20
2019-05-15T01:07:21.268Z,81.40
2019-05-15T01:07:58.633Z,81.50
2019-05-15T01:08:34.247Z,81.60
2019-05-15T01:09:10.206Z,81.70
2019-05-15T01:09:45.419Z,81.80
2019-05-15T01:10:21.200Z,81.90
2019-05-15T01:10:58.227Z,82.10
2019-05-15T01:11:35.266Z,82.20
2019-05-15T01:12:11.033Z,82.20
2019-05-15T01:12:48.549Z,82.20
2019-05-15T01:13:28.143Z,82.40
2019-05-15T01:14:03.564Z,82.30
2019-05-15T01:14:39.184Z,82.50
2019-05-15T01:15:14.775Z,82.50
2019-05-15T01:15:50.178Z,82.50
2019-05-15T01:16:27.946Z,82.60
2019-05-15T01:17:02.699Z,82.70
2019-05-15T01:17:39.066Z,82.80
2019-05-15T01:18:15.099Z,83.00
2019-05-15T01:18:50.994Z,83.00
2019-05-15T01:19:26.133Z,83.10
2019-05-15T01:20:01.716Z,83.10
2019-05-15T01:20:39.036Z,83.20
2019-05-15T01:21:15.906Z,83.20
2019-05-15T01:21:51.495Z,83.20
2019-05-15T01:22:28.661Z,83.50
2019-05-15T01:23:04.179Z,83.40
2019-05-15T01:23:39.836Z,83.60
2019-05-15T01:24:15.070Z,84.40
2019-05-15T01:24:50.803Z,83.70
2019-05-15T01:25:28.066Z,83.70
2019-05-15T01:26:04.163Z,84.00
2019-05-15T01:26:39.540Z,84.10
2019-05-15T01:27:15.155Z,84.10
2019-05-15T01:27:50.779Z,84.10
2019-05-15T01:28:28.731Z,84.20
2019-05-15T01:29:03.423Z,84.40
2019-05-15T01:29:44.751Z,84.30
2019-05-15T01:30:17.982Z,84.60
2019-05-15T01:30:53.786Z,84.60
2019-05-15T01:31:28.994Z,84.60
2019-05-15T01:32:04.986Z,84.70
2019-05-15T01:32:40.907Z,84.80
2019-05-15T01:33:18.739Z,84.70
2019-05-15T01:33:53.635Z,84.90
2019-05-15T01:34:29.446Z,84.90
2019-05-15T01:35:05.663Z,84.90
2019-05-15T01:35:42.126Z,84.90
2019-05-15T01:36:19.257Z,84.90
2019-05-15T01:36:55.411Z,85.00
2019-05-15T01:37:30.827Z,85.00
2019-05-15T01:38:08.115Z,85.10
2019-05-15T01:38:43.679Z,85.20
2019-05-15T01:39:19.719Z,85.20
2019-05-15T01:39:55.324Z,85.40
2019-05-15T01:40:30.894Z,85.40
2019-05-15T01:41:05.934Z,85.40
2019-05-15T01:41:42.812Z,85.40
2019-05-15T01:42:19.071Z,85.40
2019-05-15T01:42:55.065Z,85.50
2019-05-15T01:43:30.270Z,85.70
2019-05-15T01:44:08.641Z,85.80
2019-05-15T01:44:43.158Z,85.90
2019-05-15T01:45:18.992Z,86.10
2019-05-15T01:45:54.495Z,86.20
2019-05-15T01:46:30.181Z,86.20
2019-05-15T01:47:08.319Z,86.30
2019-05-15T01:47:43.480Z,86.40
2019-05-15T01:48:19.133Z,86.40
2019-05-15T01:48:55.223Z,86.50
2019-05-15T01:49:30.845Z,86.70
2019-05-15T01:50:06.390Z,86.70
2019-05-15T01:50:41.612Z,86.80
2019-05-15T01:51:18.507Z,86.80
2019-05-15T01:51:54.150Z,86.80
2019-05-15T01:52:29.722Z,86.70
2019-05-15T01:53:04.999Z,86.80
2019-05-15T01:53:40.727Z,86.90
2019-05-15T01:54:18.479Z,87.00
2019-05-15T01:54:53.931Z,87.30
2019-05-15T01:55:29.506Z,87.30
2019-05-15T01:56:05.091Z,87.40
2019-05-15T01:56:41.099Z,87.30
2019-05-15T01:57:18.174Z,87.40
2019-05-15T01:57:53.491Z,87.30
2019-05-15T01:58:30.350Z,87.40
2019-05-15T01:59:05.738Z,87.60
2019-05-15T01:59:53.845Z,87.50
2019-05-15T02:00:18.819Z,87.70
2019-05-15T02:00:54.408Z,87.50
2019-05-15T02:01:30.008Z,87.50
2019-05-15T02:02:05.587Z,87.60
2019-05-15T02:02:40.928Z,87.60
2019-05-15T02:03:18.404Z,87.60
2019-05-15T02:03:55.627Z,87.70
2019-05-15T02:04:31.031Z,87.70
2019-05-15T02:05:08.492Z,87.70
2019-05-15T02:05:43.851Z,87.80
2019-05-15T02:06:19.311Z,88.00
2019-05-15T02:06:54.938Z,87.90
2019-05-15T02:07:30.178Z,88.00
2019-05-15T02:08:08.210Z,88.10
2019-05-15T02:08:43.654Z,88.10
2019-05-15T02:09:19.223Z,88.10
2019-05-15T02:09:54.514Z,88.10
2019-05-15T02:10:30.483Z,88.20
2019-05-15T02:11:06.078Z,88.20
2019-05-15T02:11:41.493Z,88.50
2019-05-15T02:12:18.992Z,88.20
2019-05-15T02:12:54.083Z,88.40
2019-05-15T02:13:29.492Z,88.40
2019-05-15T02:14:05.394Z,88.50
2019-05-15T02:14:40.607Z,88.70
2019-05-15T02:15:18.891Z,89.40
2019-05-15T02:15:53.806Z,88.50
2019-05-15T02:16:29.387Z,88.30
2019-05-15T02:17:04.737Z,88.70
2019-05-15T02:17:40.843Z,88.80
2019-05-15T02:18:18.938Z,89.10
2019-05-15T02:18:53.863Z,89.80
2019-05-15T02:19:29.363Z,89.10
2019-05-15T02:20:05.047Z,89.10
2019-05-15T02:20:40.452Z,89.10
2019-05-15T02:21:18.251Z,89.10
2019-05-15T02:21:53.486Z,89.20
2019-05-15T02:22:28.959Z,89.30
2019-05-15T02:23:04.548Z,89.20
2019-05-15T02:23:40.214Z,89.20
2019-05-15T02:24:18.679Z,89.30
2019-05-15T02:24:53.822Z,89.30
2019-05-15T02:25:29.409Z,89.40
2019-05-15T02:26:05.088Z,89.90
2019-05-15T02:26:40.298Z,89.40
2019-05-15T02:27:18.430Z,89.40
2019-05-15T02:27:54.067Z,89.50
2019-05-15T02:28:30.227Z,89.50
2019-05-15T02:29:07.647Z,89.60
2019-05-15T02:29:42.601Z,89.60
2019-05-15T02:30:28.391Z,89.70
2019-05-15T02:30:58.484Z,89.70
2019-05-15T02:31:32.587Z,89.70
2019-05-15T02:32:10.194Z,89.70
2019-05-15T02:32:45.447Z,89.70
2019-05-15T02:33:20.943Z,89.70
2019-05-15T02:33:58.949Z,89.60
2019-05-15T02:34:33.462Z,89.70
2019-05-15T02:35:10.002Z,89.70
2019-05-15T02:35:49.757Z,89.80
2019-05-15T02:36:22.940Z,89.80
2019-05-15T02:37:00.141Z,89.80
2019-05-15T02:37:35.998Z,89.80
2019-05-15T02:38:15.426Z,89.80
2019-05-15T02:38:48.837Z,90.00
2019-05-15T02:39:24.403Z,90.00
2019-05-15T02:40:00.275Z,89.90
2019-05-15T02:40:35.686Z,89.90
2019-05-15T02:41:10.904Z,89.90
2019-05-15T02:41:49.135Z,90.00
2019-05-15T02:42:24.486Z,90.00
2019-05-15T02:43:00.159Z,90.00
2019-05-15T02:43:38.717Z,90.00
2019-05-15T02:44:14.732Z,90.00
2019-05-15T02:44:50.360Z,90.00
2019-05-15T02:45:29.867Z,89.90
2019-05-15T02:46:03.647Z,89.90
2019-05-15T02:46:39.544Z,89.80
2019-05-15T02:47:15.113Z,89.80
2019-05-15T02:47:51.504Z,89.90
2019-05-15T02:48:28.959Z,89.80
2019-05-15T02:49:03.980Z,89.90
2019-05-15T02:49:39.794Z,90.00
2019-05-15T02:50:15.795Z,90.00
2019-05-15T02:50:51.313Z,90.00
2019-05-15T02:51:29.727Z,90.00
2019-05-15T02:52:04.111Z,90.00
2019-05-15T02:52:44.802Z,89.70
2019-05-15T02:53:18.997Z,90.00
2019-05-15T02:53:54.257Z,90.10
2019-05-15T02:54:30.289Z,90.10
2019-05-15T02:55:08.961Z,90.10
2019-05-15T02:55:44.078Z,90.10
2019-05-15T02:56:20.514Z,90.10
2019-05-15T02:56:58.843Z,90.10
2019-05-15T02:57:33.400Z,90.10
2019-05-15T02:58:10.015Z,90.10
2019-05-15T02:58:49.062Z,90.20
2019-05-15T02:59:24.456Z,90.20
2019-05-15T03:00:00.302Z,90.20
2019-05-15T03:00:43.888Z,90.30
2019-05-15T03:01:13.000Z,90.30
2019-05-15T03:01:49.399Z,90.30
2019-05-15T03:02:25.059Z,90.30
2019-05-15T03:03:00.568Z,90.30
2019-05-15T03:03:38.725Z,90.30
2019-05-15T03:04:13.670Z,90.30
2019-05-15T03:04:49.645Z,90.40
2019-05-15T03:05:24.875Z,90.40
2019-05-15T03:06:00.662Z,90.30
2019-05-15T03:06:38.893Z,90.30
2019-05-15T03:07:13.566Z,90.30
2019-05-15T03:07:49.381Z,90.40
2019-05-15T03:08:25.086Z,90.40
2019-05-15T03:09:00.692Z,90.40
2019-05-15T03:09:36.164Z,90.40
2019-05-15T03:10:11.688Z,90.40
2019-05-15T03:10:49.770Z,90.40
2019-05-15T03:11:24.740Z,90.40
2019-05-15T03:12:00.376Z,90.50
2019-05-15T03:12:40.154Z,90.50
2019-05-15T03:13:13.383Z,90.50
2019-05-15T03:13:50.336Z,90.50
2019-05-15T03:14:29.006Z,90.60
2019-05-15T03:15:03.049Z,90.60
2019-05-15T03:15:40.568Z,90.60
2019-05-15T03:16:19.515Z,90.90
2019-05-15T03:16:53.854Z,90.60
2019-05-15T03:17:29.792Z,90.60
2019-05-15T03:18:05.545Z,90.60
2019-05-15T03:18:40.955Z,90.70
2019-05-15T03:19:19.275Z,90.70
2019-05-15T03:19:53.693Z,90.70
2019-05-15T03:20:29.743Z,90.70
2019-05-15T03:21:05.661Z,90.70
2019-05-15T03:21:41.509Z,90.80
2019-05-15T03:22:19.374Z,90.70
2019-05-15T03:22:54.111Z,90.70
2019-05-15T03:23:29.924Z,90.80
2019-05-15T03:24:05.346Z,90.80
2019-05-15T03:24:40.858Z,90.80
2019-05-15T03:25:19.124Z,90.80
2019-05-15T03:25:54.560Z,90.80
2019-05-15T03:26:30.154Z,90.80
2019-05-15T03:27:08.941Z,90.80
2019-05-15T03:27:42.847Z,90.90
2019-05-15T03:28:19.234Z,90.90
2019-05-15T03:28:55.388Z,90.90
2019-05-15T03:29:30.424Z,91.00
2019-05-15T03:30:12.235Z,91.10
2019-05-15T03:31:13.047Z,91.30
2019-05-15T03:31:40.715Z,91.10
2019-05-15T03:32:09.397Z,91.10
2019-05-15T03:32:43.601Z,91.20
2019-05-15T03:33:20.818Z,91.20
2019-05-15T03:33:54.287Z,91.20
2019-05-15T03:34:35.487Z,91.20
2019-05-15T03:35:06.017Z,91.20
2019-05-15T03:35:44.141Z,91.20
2019-05-15T03:36:23.036Z,91.20
2019-05-15T03:36:55.967Z,91.20
2019-05-15T03:37:33.696Z,91.20
2019-05-15T03:38:09.355Z,91.30
2019-05-15T03:38:46.024Z,91.30
2019-05-15T03:39:21.349Z,91.30
2019-05-15T03:39:59.567Z,91.30
2019-05-15T03:40:34.010Z,91.30
2019-05-15T03:41:10.445Z,91.30
2019-05-15T03:41:45.910Z,91.30
2019-05-15T03:42:21.680Z,91.30
2019-05-15T03:42:59.286Z,91.30
2019-05-15T03:43:34.544Z,91.30
2019-05-15T03:44:09.708Z,91.30
2019-05-15T03:44:45.279Z,91.30
2019-05-15T03:45:20.907Z,91.40
2019-05-15T03:45:56.297Z,91.60
2019-05-15T03:46:32.725Z,91.30
2019-05-15T03:47:09.331Z,91.40
2019-05-15T03:47:44.885Z,91.40
2019-05-15T03:48:20.463Z,91.50
2019-05-15T03:48:55.855Z,91.50
2019-05-15T03:49:32.383Z,91.50
2019-05-15T03:50:09.027Z,91.50
2019-05-15T03:50:44.832Z,91.50
2019-05-15T03:51:20.313Z,91.50
2019-05-15T03:51:58.726Z,91.40
2019-05-15T03:52:33.211Z,91.50
2019-05-15T03:53:10.398Z,91.50
2019-05-15T03:53:49.450Z,91.60
2019-05-15T03:54:23.539Z,91.60
2019-05-15T03:54:58.979Z,91.60
2019-05-15T03:55:35.105Z,91.60
2019-05-15T03:56:10.672Z,91.70
2019-05-15T03:56:49.548Z,91.70
2019-05-15T03:57:23.549Z,91.70
2019-05-15T03:57:59.574Z,91.70
2019-05-15T03:58:34.591Z,91.70
2019-05-15T03:59:10.408Z,91.80
2019-05-15T03:59:48.829Z,91.80
2019-05-15T04:00:23.332Z,91.80
2019-05-15T04:01:00.122Z,91.80
2019-05-15T04:01:39.858Z,91.80
2019-05-15T04:02:14.170Z,91.80
2019-05-15T04:02:49.772Z,91.80
2019-05-15T04:03:25.002Z,91.80
2019-05-15T04:04:00.388Z,91.80
2019-05-15T04:04:38.823Z,91.80
2019-05-15T04:05:14.562Z,91.80
2019-05-15T04:05:50.196Z,91.90
2019-05-15T04:06:25.836Z,91.80
2019-05-15T04:07:01.403Z,91.80
2019-05-15T04:07:39.380Z,91.80
2019-05-15T04:08:13.693Z,91.90
2019-05-15T04:08:49.828Z,91.80
2019-05-15T04:09:25.678Z,91.80
2019-05-15T04:10:01.500Z,91.90
2019-05-15T04:10:39.472Z,91.80
2019-05-15T04:11:13.938Z,91.80
2019-05-15T04:11:49.983Z,91.90
2019-05-15T04:12:29.029Z,91.90
2019-05-15T04:13:04.551Z,91.90
2019-05-15T04:13:40.163Z,92.00
2019-05-15T04:14:19.125Z,92.00
2019-05-15T04:14:53.150Z,92.00
2019-05-15T04:15:30.176Z,92.00
2019-05-15T04:16:05.943Z,92.00
2019-05-15T04:16:41.647Z,92.00
2019-05-15T04:17:19.822Z,92.00
2019-05-15T04:17:54.650Z,92.00
2019-05-15T04:18:30.344Z,92.00
2019-05-15T04:19:05.930Z,92.00
2019-05-15T04:19:41.795Z,92.00
2019-05-15T04:20:19.827Z,92.00
2019-05-15T04:20:54.112Z,92.00
2019-05-15T04:21:30.476Z,92.00
2019-05-15T04:22:08.955Z,92.10
2019-05-15T04:22:42.912Z,92.10
2019-05-15T04:23:22.764Z,92.10
2019-05-15T04:23:58.828Z,92.10
2019-05-15T04:24:34.502Z,92.10
2019-05-15T04:25:10.109Z,92.10
2019-05-15T04:25:49.308Z,92.20
2019-05-15T04:26:23.482Z,92.20
2019-05-15T04:26:59.816Z,92.30
2019-05-15T04:27:35.118Z,92.30
2019-05-15T04:28:11.598Z,92.30
2019-05-15T04:28:49.461Z,92.30
2019-05-15T04:29:24.568Z,92.40
2019-05-15T04:30:00.029Z,92.40
2019-05-15T04:30:39.234Z,92.40
2019-05-15T04:31:14.423Z,92.40
2019-05-15T04:31:59.829Z,92.40
2019-05-15T04:32:28.933Z,92.40
2019-05-15T04:33:04.481Z,92.50
2019-05-15T04:33:40.325Z,92.40
2019-05-15T04:34:16.027Z,92.50
2019-05-15T04:34:52.304Z,92.50
2019-05-15T04:35:28.944Z,92.50
2019-05-15T04:36:04.740Z,92.50
2019-05-15T04:36:44.489Z,92.50
2019-05-15T04:37:19.051Z,92.50
2019-05-15T04:37:54.985Z,92.60
2019-05-15T04:38:30.440Z,92.60
2019-05-15T04:39:09.872Z,92.60
2019-05-15T04:39:44.453Z,92.60
2019-05-15T04:40:19.844Z,92.60
2019-05-15T04:40:55.483Z,92.60
2019-05-15T04:41:31.074Z,92.50
2019-05-15T04:42:08.202Z,92.50
2019-05-15T04:42:43.444Z,92.50
2019-05-15T04:43:19.566Z,92.50
2019-05-15T04:43:55.415Z,92.50
2019-05-15T04:44:30.811Z,92.50
2019-05-15T04:45:10.005Z,92.50
2019-05-15T04:45:44.234Z,92.50
2019-05-15T04:46:20.214Z,92.50
2019-05-15T04:46:59.497Z,92.50
2019-05-15T04:47:33.835Z,92.50
2019-05-15T04:48:10.448Z,92.50
2019-05-15T04:48:49.852Z,92.50
2019-05-15T04:49:23.360Z,92.50
2019-05-15T04:49:59.119Z,92.50
2019-05-15T04:50:34.835Z,92.50
2019-05-15T04:51:10.495Z,92.40
2019-05-15T04:51:45.699Z,92.40
2019-05-15T04:52:21.392Z,92.40
2019-05-15T04:52:59.297Z,92.40
2019-05-15T04:53:34.570Z,92.40
2019-05-15T04:54:09.958Z,92.40
2019-05-15T04:54:49.122Z,92.40
2019-05-15T04:55:22.973Z,92.40
2019-05-15T04:55:59.721Z,92.30
2019-05-15T04:56:35.191Z,92.30
2019-05-15T04:57:10.764Z,92.30
2019-05-15T04:57:46.341Z,92.30
2019-05-15T04:58:21.733Z,92.30
2019-05-15T04:59:00.105Z,92.30
2019-05-15T04:59:34.305Z,92.30
2019-05-15T05:00:10.613Z,92.30
2019-05-15T05:00:53.588Z,92.30
2019-05-15T05:01:29.012Z,92.40
2019-05-15T05:02:17.218Z,92.30
2019-05-15T05:02:42.188Z,92.30
2019-05-15T05:03:19.789Z,92.30
2019-05-15T05:03:54.529Z,92.30
2019-05-15T05:04:30.113Z,92.30
2019-05-15T05:05:06.085Z,92.20
2019-05-15T05:05:41.704Z,92.20
2019-05-15T05:06:18.980Z,92.20
2019-05-15T05:06:54.206Z,92.20
2019-05-15T05:07:29.918Z,92.30
2019-05-15T05:08:09.077Z,92.20
2019-05-15T05:08:43.039Z,92.20
2019-05-15T05:09:19.824Z,92.20
2019-05-15T05:09:55.823Z,92.20
2019-05-15T05:10:31.436Z,92.20
2019-05-15T05:11:09.421Z,92.20
2019-05-15T05:11:44.007Z,92.10
2019-05-15T05:12:19.672Z,92.00
2019-05-15T05:12:55.324Z,92.00
2019-05-15T05:13:30.555Z,91.90
2019-05-15T05:14:08.535Z,92.00
2019-05-15T05:14:43.858Z,92.00
2019-05-15T05:15:19.504Z,91.90
2019-05-15T05:15:54.866Z,91.80
2019-05-15T05:16:30.281Z,91.80
2019-05-15T05:17:08.816Z,91.80
2019-05-15T05:17:43.403Z,91.70
2019-05-15T05:18:18.988Z,91.70
2019-05-15T05:18:55.022Z,91.70
2019-05-15T05:19:30.881Z,91.70
2019-05-15T05:20:08.043Z,91.60
2019-05-15T05:20:43.255Z,91.50
2019-05-15T05:21:18.858Z,91.40
2019-05-15T05:21:54.246Z,91.40
2019-05-15T05:22:29.845Z,91.30
2019-05-15T05:23:05.241Z,91.60
2019-05-15T05:23:40.874Z,91.30
2019-05-15T05:24:18.525Z,91.20
2019-05-15T05:24:54.082Z,91.10
2019-05-15T05:25:29.111Z,91.00
2019-05-15T05:26:04.717Z,91.00
2019-05-15T05:26:41.211Z,90.80
2019-05-15T05:27:18.260Z,90.60
2019-05-15T05:27:53.890Z,90.50
2019-05-15T05:28:29.476Z,90.50
2019-05-15T05:29:05.474Z,90.30
2019-05-15T05:29:41.398Z,90.10
2019-05-15T05:30:18.906Z,89.80
2019-05-15T05:30:53.762Z,88.50
2019-05-15T05:31:29.691Z,88.30
2019-05-15T05:32:05.525Z,87.70
2019-05-15T05:32:40.559Z,87.10
2019-05-15T05:33:17.950Z,86.80
2019-05-15T05:33:53.938Z,86.40
2019-05-15T05:34:29.315Z,86.00
2019-05-15T05:35:04.560Z,86.30
2019-05-15T05:35:41.162Z,85.40
2019-05-15T05:36:18.492Z,85.30
2019-05-15T05:36:53.859Z,84.80
2019-05-15T05:37:29.395Z,83.50
2019-05-15T05:38:05.138Z,83.60
2019-05-15T05:38:40.727Z,83.40
2019-05-15T05:39:19.179Z,83.10
2019-05-15T05:39:53.812Z,82.70
2019-05-15T05:40:29.735Z,82.60
2019-05-15T05:41:07.939Z,82.20
2019-05-15T05:41:42.403Z,81.70
2019-05-15T05:42:18.520Z,81.50
2019-05-15T05:42:55.325Z,81.10
2019-05-15T05:43:31.029Z,80.70
2019-05-15T05:44:08.170Z,80.60
2019-05-15T05:44:43.637Z,80.40
2019-05-15T05:45:19.090Z,80.30
2019-05-15T05:45:54.671Z,80.10
2019-05-15T05:46:30.264Z,79.50
2019-05-15T05:47:05.308Z,79.00
2019-05-15T05:47:40.896Z,78.50
2019-05-15T05:48:18.734Z,78.00
2019-05-15T05:48:54.544Z,77.20
2019-05-15T05:49:30.000Z,77.00
2019-05-15T05:50:07.871Z,75.90
2019-05-15T05:50:44.261Z,75.90
2019-05-15T05:51:20.295Z,74.80
2019-05-15T05:51:55.668Z,74.60
2019-05-15T05:52:31.179Z,74.40
2019-05-15T05:53:08.834Z,74.00
2019-05-15T05:53:47.868Z,73.60
2019-05-15T05:54:22.329Z,73.10
2019-05-15T05:54:58.162Z,72.50
2019-05-15T05:55:34.146Z,72.30
2019-05-15T05:56:10.709Z,72.10
2019-05-15T05:56:48.117Z,71.80
2019-05-15T05:57:23.347Z,71.80
2019-05-15T05:57:58.806Z,71.60
2019-05-15T05:58:34.662Z,71.30
2019-05-15T05:59:09.892Z,71.10
2019-05-15T05:59:45.582Z,71.10
2019-05-15T06:00:25.183Z,69.70
2019-05-15T06:01:00.775Z,69.40
2019-05-15T06:01:43.262Z,69.20
2019-05-15T06:02:13.978Z,69.00
2019-05-15T06:02:52.294Z,68.90
2019-05-15T06:03:28.061Z,68.70
2019-05-15T06:04:03.595Z,68.60
2019-05-15T06:04:39.518Z,68.50
2019-05-15T06:05:15.272Z,68.30
2019-05-15T06:05:51.195Z,68.30
2019-05-15T06:06:29.099Z,68.00
2019-05-15T06:07:10.029Z,68.40
2019-05-15T06:07:41.386Z,67.60
2019-05-15T06:08:19.509Z,67.40
2019-05-15T06:08:53.722Z,67.40
2019-05-15T06:09:29.302Z,67.10
2019-05-15T06:10:05.980Z,66.80
2019-05-15T06:10:41.734Z,66.70
2019-05-15T06:11:18.344Z,66.20
2019-05-15T06:11:54.314Z,65.50
2019-05-15T06:12:29.707Z,65.60
2019-05-15T06:13:08.503Z,66.20
2019-05-15T06:13:42.513Z,65.20
2019-05-15T06:14:18.483Z,64.90
2019-05-15T06:14:54.179Z,64.90
2019-05-15T06:15:29.794Z,64.60
2019-05-15T06:16:04.867Z,64.50
2019-05-15T06:16:40.498Z,65.30
2019-05-15T06:17:16.160Z,64.40
2019-05-15T06:17:52.083Z,64.30
2019-05-15T06:18:28.165Z,64.20
2019-05-15T06:19:03.892Z,64.00
2019-05-15T06:19:39.543Z,64.00
2019-05-15T06:20:15.399Z,63.80
2019-05-15T06:20:50.663Z,63.60
2019-05-15T06:21:28.536Z,63.40
2019-05-15T06:22:04.525Z,63.40
2019-05-15T06:22:40.146Z,63.20
2019-05-15T06:23:15.187Z,63.00
2019-05-15T06:23:55.613Z,62.80
2019-05-15T06:24:30.521Z,62.60
2019-05-15T06:25:10.616Z,62.40
2019-05-15T06:25:43.121Z,62.10
2019-05-15T06:26:19.720Z,62.00
2019-05-15T06:26:55.655Z,61.70
2019-05-15T06:27:31.586Z,61.70
2019-05-15T06:28:08.955Z,61.70
2019-05-15T06:28:43.942Z,61.50
2019-05-15T06:29:19.576Z,61.40
2019-05-15T06:29:57.686Z,61.40
2019-05-15T06:30:32.305Z,61.20
2019-05-15T06:31:08.857Z,61.00
2019-05-15T06:31:44.690Z,60.80
2019-05-15T06:32:20.122Z,60.70
2019-05-15T06:33:05.755Z,60.50
2019-05-15T06:33:33.827Z,60.40
2019-05-15T06:34:09.627Z,60.10
2019-05-15T06:34:45.203Z,59.70
2019-05-15T06:35:20.465Z,59.60
2019-05-15T06:35:55.892Z,59.10
2019-05-15T06:36:31.523Z,59.00
2019-05-15T06:37:08.315Z,58.40
2019-05-15T06:37:43.504Z,58.10
2019-05-15T06:38:19.819Z,57.70
2019-05-15T06:38:55.587Z,57.50
2019-05-15T06:39:31.263Z,57.50
2019-05-15T06:40:08.486Z,57.30
2019-05-15T06:40:44.466Z,57.20
2019-05-15T06:41:19.874Z,57.00
2019-05-15T06:41:55.486Z,56.80
2019-05-15T06:42:31.002Z,56.60
2019-05-15T06:43:08.769Z,56.50
2019-05-15T06:43:44.538Z,56.30
2019-05-15T06:44:20.138Z,56.80
2019-05-15T06:44:55.205Z,56.30
2019-05-15T06:45:30.826Z,56.30
2019-05-15T06:46:08.998Z,56.30
2019-05-15T06:46:44.053Z,56.00
2019-05-15T06:47:19.576Z,55.70
2019-05-15T06:47:55.150Z,55.50
2019-05-15T06:48:30.545Z,55.30
2019-05-15T06:49:08.335Z,54.90
2019-05-15T06:49:43.071Z,54.40
2019-05-15T06:50:53.262Z,54.10
2019-05-15T06:51:29.832Z,53.70
2019-05-15T06:52:05.078Z,52.80
2019-05-15T06:52:40.833Z,52.10
2019-05-15T06:53:18.784Z,51.20
2019-05-15T06:53:53.711Z,51.00
2019-05-15T06:54:29.001Z,50.70
2019-05-15T06:55:04.714Z,50.50
2019-05-15T06:55:40.310Z,49.60
2019-05-15T06:56:15.765Z,49.10
2019-05-15T06:56:51.411Z,48.60
2019-05-15T06:57:28.702Z,48.40
2019-05-15T06:58:04.330Z,48.10
2019-05-15T06:58:39.931Z,47.80
2019-05-15T06:59:15.426Z,47.70
2019-05-15T06:59:51.632Z,47.40
2019-05-15T07:00:28.374Z,47.40
2019-05-15T07:01:04.020Z,47.40
2019-05-15T07:01:39.067Z,47.40
2019-05-15T07:02:14.646Z,47.50
2019-05-15T07:02:50.523Z,47.50
2019-05-15T07:03:29.056Z,47.50
2019-05-15T07:04:03.249Z,47.50
2019-05-15T07:04:39.223Z,47.50
2019-05-15T07:05:14.623Z,47.00
2019-05-15T07:05:51.200Z,46.80
2019-05-15T07:06:28.596Z,46.80
2019-05-15T07:07:07.852Z,46.70
2019-05-15T07:07:43.168Z,46.60
2019-05-15T07:08:18.797Z,46.60
2019-05-15T07:08:54.988Z,46.60
2019-05-15T07:09:30.575Z,46.60
2019-05-15T07:10:08.696Z,46.40
2019-05-15T07:10:43.583Z,46.10
2019-05-15T07:11:19.218Z,46.00
2019-05-15T07:11:54.955Z,45.80
2019-05-15T07:12:30.351Z,45.70
2019-05-15T07:13:06.010Z,45.30
2019-05-15T07:13:41.580Z,44.60
2019-05-15T07:14:18.141Z,43.90
2019-05-15T07:14:53.994Z,43.20
2019-05-15T07:15:29.581Z,43.00
2019-05-15T07:16:04.611Z,42.90
2019-05-15T07:16:40.212Z,42.60
2019-05-15T07:17:17.753Z,41.50
2019-05-15T07:17:53.389Z,41.30
2019-05-15T07:18:28.607Z,41.30
2019-05-15T07:19:04.174Z,41.30
2019-05-15T07:19:39.904Z,41.40
2019-05-15T07:20:15.527Z,41.30
2019-05-15T07:20:50.758Z,41.10
2019-05-15T07:21:28.341Z,41.10
2019-05-15T07:22:05.053Z,41.10
2019-05-15T07:22:40.672Z,41.20
2019-05-15T07:23:18.330Z,41.30
2019-05-15T07:23:53.035Z,41.20
2019-05-15T07:24:30.073Z,41.20
2019-05-15T07:25:05.908Z,41.00
2019-05-15T07:25:41.115Z,40.80
2019-05-15T07:26:18.330Z,40.70
2019-05-15T07:26:53.862Z,40.20
2019-05-15T07:27:29.551Z,39.90
2019-05-15T07:28:05.122Z,39.80
2019-05-15T07:28:40.568Z,39.70
2019-05-15T07:29:18.638Z,39.40
2019-05-15T07:29:53.741Z,39.30
2019-05-15T07:30:29.095Z,38.90
2019-05-15T07:31:04.665Z,38.50
2019-05-15T07:31:40.267Z,38.40
2019-05-15T07:32:15.655Z,37.90
2019-05-15T07:32:51.199Z,37.40
2019-05-15T07:33:38.666Z,37.50
2019-05-15T07:34:05.212Z,38.00
2019-05-15T07:34:40.850Z,37.40
2019-05-15T07:35:19.007Z,37.50
2019-05-15T07:35:53.659Z,37.70
2019-05-15T07:36:29.333Z,37.70
2019-05-15T07:37:04.931Z,37.90
2019-05-15T07:37:40.131Z,38.00
2019-05-15T07:38:18.156Z,38.00
2019-05-15T07:38:54.390Z,38.10
2019-05-15T07:39:29.838Z,38.00
2019-05-15T07:40:08.246Z,38.10
2019-05-15T07:40:43.483Z,38.20
2019-05-15T07:41:20.323Z,38.20
2019-05-15T07:41:57.834Z,38.40
2019-05-15T07:42:33.584Z,38.60
2019-05-15T07:43:09.523Z,39.20
2019-05-15T07:43:45.298Z,38.60
2019-05-15T07:44:20.875Z,38.60
2019-05-15T07:44:58.631Z,38.60
2019-05-15T07:45:33.191Z,38.70